createdAt,value
2018-10-02T00:01:50.644Z,18.50
2018-10-02T00:04:21.449Z,18.60
2018-10-02T00:06:52.316Z,18.70
2018-10-02T00:09:23.184Z,18.60
2018-10-02T00:11:58.836Z,18.60
2018-10-02T00:14:30.802Z,18.70
2018-10-02T00:17:01.357Z,18.70
2018-10-02T00:19:31.894Z,18.60
2018-10-02T00:22:02.532Z,18.60
2018-10-02T00:24:33.373Z,18.60
2018-10-02T00:27:04.127Z,18.60
2018-10-02T00:29:34.859Z,18.60
2018-10-02T00:32:05.561Z,18.70
2018-10-02T00:34:36.492Z,18.70
2018-10-02T00:37:07.150Z,18.70
2018-10-02T00:39:37.892Z,18.70
2018-10-02T00:42:08.514Z,18.70
2018-10-02T00:44:39.477Z,18.70
2018-10-02T00:47:10.414Z,18.70
2018-10-02T00:49:41.188Z,18.70
2018-10-02T00:52:11.861Z,18.70
2018-10-02T00:54:42.491Z,18.70
2018-10-02T00:57:13.028Z,18.70
2018-10-02T00:59:43.827Z,18.70
2018-10-02T01:02:14.488Z,18.60
2018-10-02T01:04:44.971Z,18.60
2018-10-02T01:07:15.862Z,18.60
2018-10-02T01:09:46.492Z,18.60
2018-10-02T01:12:17.119Z,18.50
2018-10-02T01:14:48.215Z,18.50
2018-10-02T01:17:18.784Z,18.50
2018-10-02T01:19:49.717Z,18.40
2018-10-02T01:22:20.414Z,18.50
2018-10-02T01:24:51.053Z,18.40
2018-10-02T01:27:21.894Z,18.40
2018-10-02T01:29:52.552Z,18.40
2018-10-02T01:32:23.119Z,18.40
2018-10-02T01:34:53.729Z,18.30
2018-10-02T01:37:24.560Z,18.20
2018-10-02T01:39:55.149Z,18.20
2018-10-02T01:42:26.364Z,18.20
2018-10-02T01:44:57.035Z,18.20
2018-10-02T01:47:27.825Z,18.20
2018-10-02T01:49:58.585Z,18.20
2018-10-02T01:52:29.331Z,18.10
2018-10-02T01:55:00.006Z,18.20
2018-10-02T01:57:30.593Z,18.20
2018-10-02T02:00:01.244Z,18.20
2018-10-02T02:02:32.070Z,18.10
2018-10-02T02:05:02.701Z,18.10
2018-10-02T02:07:33.730Z,18.10
2018-10-02T02:10:04.608Z,18.10
2018-10-02T02:12:35.713Z,18.10
2018-10-02T02:15:06.338Z,18.10
2018-10-02T02:17:37.250Z,18.10
2018-10-02T02:20:07.755Z,18.10
2018-10-02T02:22:38.515Z,18.10
2018-10-02T02:25:09.300Z,18.10
2018-10-02T02:27:39.939Z,18.20
2018-10-02T02:30:10.751Z,18.10
2018-10-02T02:32:41.431Z,18.10
2018-10-02T02:35:12.240Z,18.10
2018-10-02T02:37:43.074Z,18.20
2018-10-02T02:40:14.190Z,18.20
2018-10-02T02:42:44.704Z,18.30
2018-10-02T02:45:15.429Z,18.30
2018-10-02T02:47:51.167Z,18.30
2018-10-02T02:50:26.859Z,18.30
2018-10-02T02:53:00.650Z,18.40
2018-10-02T02:55:31.547Z,18.50
2018-10-02T02:58:02.385Z,18.50
2018-10-02T03:00:33.257Z,18.40
2018-10-02T03:03:03.852Z,18.40
2018-10-02T03:05:34.540Z,18.40
2018-10-02T03:08:05.245Z,18.40
2018-10-02T03:10:36.454Z,18.40
2018-10-02T03:13:07.452Z,18.40
2018-10-02T03:15:38.255Z,18.20
2018-10-02T03:18:08.946Z,18.20
2018-10-02T03:20:39.834Z,18.30
2018-10-02T03:23:10.469Z,18.40
2018-10-02T03:25:41.171Z,18.30
2018-10-02T03:28:11.931Z,18.30
2018-10-02T03:30:42.549Z,18.20
2018-10-02T03:33:13.215Z,18.20
2018-10-02T03:35:44.160Z,18.20
2018-10-02T03:38:14.783Z,18.20
2018-10-02T03:40:45.511Z,18.20
2018-10-02T03:43:16.114Z,18.20
2018-10-02T03:45:47.142Z,18.20
2018-10-02T03:48:17.764Z,18.10
2018-10-02T03:50:48.447Z,18.10
2018-10-02T03:53:19.384Z,18.10
2018-10-02T03:55:49.965Z,18.20
2018-10-02T03:58:20.964Z,18.30
2018-10-02T04:00:51.839Z,18.30
2018-10-02T04:03:22.596Z,18.30
2018-10-02T04:05:53.464Z,18.40
2018-10-02T04:08:24.302Z,18.30
2018-10-02T04:10:54.844Z,18.20
2018-10-02T04:13:25.652Z,18.20
2018-10-02T04:15:56.347Z,18.20
2018-10-02T04:18:27.042Z,18.10
2018-10-02T04:20:58.037Z,18.20
2018-10-02T04:23:28.803Z,18.20
2018-10-02T04:25:59.468Z,18.20
2018-10-02T04:28:30.197Z,18.20
2018-10-02T04:31:00.938Z,18.20
2018-10-02T04:33:31.538Z,18.20
2018-10-02T04:36:02.187Z,18.30
2018-10-02T04:38:32.978Z,18.30
2018-10-02T04:41:03.691Z,18.20
2018-10-02T04:43:34.303Z,18.20
2018-10-02T04:46:04.995Z,18.20
2018-10-02T04:48:35.989Z,18.20
2018-10-02T04:51:06.611Z,18.30
2018-10-02T04:53:37.444Z,18.20
2018-10-02T04:56:08.261Z,18.30
2018-10-02T04:58:38.727Z,18.20
2018-10-02T05:01:09.659Z,18.10
2018-10-02T05:03:40.661Z,18.10
2018-10-02T05:06:11.834Z,18.20
2018-10-02T05:08:42.435Z,18.20
2018-10-02T05:11:13.263Z,18.20
2018-10-02T05:13:44.131Z,18.20
2018-10-02T05:16:15.026Z,18.30
2018-10-02T05:18:45.719Z,18.30
2018-10-02T05:21:16.329Z,18.30
2018-10-02T05:23:47.087Z,18.30
2018-10-02T05:26:17.749Z,18.30
2018-10-02T05:28:48.542Z,18.30
2018-10-02T05:31:19.202Z,18.40
2018-10-02T05:33:50.131Z,18.30
2018-10-02T05:36:20.791Z,18.30
2018-10-02T05:38:51.633Z,18.40
2018-10-02T05:41:22.730Z,18.50
2018-10-02T05:43:53.273Z,18.50
2018-10-02T05:46:24.244Z,18.60
2018-10-02T05:48:55.214Z,18.70
2018-10-02T05:51:26.105Z,18.70
2018-10-02T05:53:56.744Z,18.70
2018-10-02T05:56:27.319Z,18.70
2018-10-02T05:58:58.593Z,18.80
2018-10-02T06:01:29.474Z,18.90
2018-10-02T06:04:00.165Z,19.00
2018-10-02T06:06:30.689Z,19.10
2018-10-02T06:09:01.519Z,19.10
2018-10-02T06:11:32.626Z,19.10
2018-10-02T06:14:03.386Z,19.10
2018-10-02T06:16:34.093Z,19.20
2018-10-02T06:19:05.129Z,19.20
2018-10-02T06:21:35.937Z,19.30
2018-10-02T06:24:06.773Z,19.30
2018-10-02T06:26:37.302Z,19.50
2018-10-02T06:29:08.134Z,19.50
2018-10-02T06:31:38.723Z,19.70
2018-10-02T06:34:09.539Z,19.80
2018-10-02T06:36:40.345Z,19.80
2018-10-02T06:39:13.309Z,20.00
2018-10-02T06:41:47.489Z,20.00
2018-10-02T06:44:18.379Z,20.10
2018-10-02T06:46:59.833Z,20.10
2018-10-02T06:49:30.837Z,20.20
2018-10-02T06:52:04.640Z,20.30
2018-10-02T06:54:35.340Z,20.30
2018-10-02T06:57:07.735Z,20.40
2018-10-02T06:59:38.788Z,20.40
2018-10-02T07:02:11.792Z,20.40
2018-10-02T07:04:47.404Z,20.40
2018-10-02T07:07:28.760Z,20.40
2018-10-02T07:10:14.731Z,20.40
2018-10-02T07:13:01.462Z,20.50
2018-10-02T07:15:58.913Z,20.50
2018-10-02T07:18:33.633Z,20.70
2018-10-02T07:21:32.689Z,20.90
2018-10-02T07:24:19.114Z,21.00
2018-10-02T07:26:54.824Z,21.10
2018-10-02T07:29:27.833Z,21.30
2018-10-02T07:32:00.925Z,21.40
2018-10-02T07:34:32.485Z,21.50
2018-10-02T07:37:04.727Z,21.60
2018-10-02T07:39:37.716Z,21.60
2018-10-02T07:42:11.143Z,21.80
2018-10-02T07:44:42.408Z,21.90
2018-10-02T07:47:14.107Z,21.90
2018-10-02T07:49:45.047Z,22.00
2018-10-02T07:52:15.669Z,22.40
2018-10-02T07:54:46.405Z,23.10
2018-10-02T07:57:17.092Z,23.90
2018-10-02T07:59:48.967Z,24.80
2018-10-02T08:02:19.886Z,25.20
2018-10-02T08:04:50.728Z,25.60
2018-10-02T08:07:21.476Z,26.10
2018-10-02T08:09:52.171Z,26.80
2018-10-02T08:12:23.065Z,27.20
2018-10-02T08:14:53.703Z,27.00
2018-10-02T08:17:24.388Z,27.40
2018-10-02T08:19:55.245Z,27.60
2018-10-02T08:22:25.845Z,27.70
2018-10-02T08:24:56.619Z,27.70
2018-10-02T08:27:27.391Z,27.90
2018-10-02T08:29:58.196Z,27.70
2018-10-02T08:32:29.039Z,26.70
2018-10-02T08:34:59.822Z,26.40
2018-10-02T08:37:30.559Z,26.00
2018-10-02T08:40:01.449Z,25.60
2018-10-02T08:42:32.582Z,25.20
2018-10-02T08:45:03.242Z,24.90
2018-10-02T08:47:34.748Z,24.70
2018-10-02T08:50:05.428Z,24.40
2018-10-02T08:52:36.097Z,24.20
2018-10-02T08:55:07.158Z,24.00
2018-10-02T08:57:37.984Z,24.00
2018-10-02T09:00:09.003Z,23.80
2018-10-02T10:50:39.040Z,25.80
2018-10-02T10:53:13.019Z,25.80
2018-10-02T10:55:46.647Z,25.60
2018-10-02T10:58:18.518Z,25.30
2018-10-02T11:00:50.273Z,25.90
2018-10-02T11:03:21.789Z,26.70
2018-10-02T11:05:53.707Z,27.40
2018-10-02T11:08:26.052Z,27.90
2018-10-02T11:10:56.394Z,28.40
2018-10-02T11:13:27.466Z,28.50
2018-10-02T11:16:00.950Z,28.30
2018-10-02T11:18:33.745Z,27.90
2018-10-02T11:21:04.963Z,28.30
2018-10-02T11:23:38.222Z,28.50
2018-10-02T11:26:10.405Z,28.40
2018-10-02T11:28:41.087Z,28.00
2018-10-02T11:31:12.343Z,27.40
2018-10-02T11:33:42.948Z,27.50
2018-10-02T12:04:59.410Z,26.20
2018-10-02T12:07:30.279Z,27.50
2018-10-02T12:10:01.310Z,27.10
2018-10-02T12:12:32.016Z,26.70
2018-10-02T12:26:51.930Z,26.40
2018-10-02T12:29:22.275Z,26.10
2018-10-02T12:31:52.798Z,26.00
2018-10-02T12:34:23.209Z,25.90
2018-10-02T12:36:53.423Z,25.80
2018-10-02T12:39:23.774Z,25.80
2018-10-02T12:41:54.312Z,25.80
2018-10-02T12:44:24.934Z,25.70
2018-10-02T12:46:55.357Z,25.50
2018-10-02T12:49:25.560Z,25.80
2018-10-02T12:51:55.978Z,26.10
2018-10-02T12:54:26.527Z,26.60
2018-10-02T12:56:56.852Z,27.00
2018-10-02T12:59:27.281Z,27.10
2018-10-02T13:01:57.448Z,26.90
2018-10-02T13:04:27.974Z,26.60
2018-10-02T13:06:59.251Z,26.60
2018-10-02T13:09:29.563Z,26.60
2018-10-02T13:12:00.021Z,26.30
2018-10-02T13:14:30.340Z,26.20
2018-10-02T13:17:00.673Z,26.40
2018-10-02T13:19:33.416Z,26.60
2018-10-02T13:22:04.496Z,26.60
2018-10-02T13:24:35.082Z,26.50
2018-10-02T13:27:05.557Z,26.50
2018-10-02T13:29:36.803Z,26.50
2018-10-02T13:32:07.309Z,26.40
2018-10-02T13:34:37.945Z,26.30
2018-10-02T13:37:08.434Z,26.00
2018-10-02T13:39:38.880Z,25.90
2018-10-02T13:42:09.604Z,25.80
2018-10-02T13:44:40.106Z,25.70
2018-10-02T13:47:11.230Z,25.70
2018-10-02T13:49:42.297Z,25.60
2018-10-02T13:52:13.178Z,25.40
2018-10-02T13:54:43.616Z,25.30
2018-10-02T13:57:13.942Z,25.10
2018-10-02T13:59:44.312Z,25.00
2018-10-02T14:02:15.057Z,24.90
2018-10-02T14:04:45.433Z,24.80
2018-10-02T14:07:15.911Z,24.70
2018-10-02T14:09:46.304Z,24.70
2018-10-02T14:12:16.996Z,24.90
2018-10-02T14:14:47.561Z,25.00
2018-10-02T14:17:18.139Z,24.90
2018-10-02T14:19:48.618Z,24.80
2018-10-02T14:22:19.105Z,24.90
2018-10-02T14:24:49.592Z,25.10
2018-10-02T14:27:20.048Z,25.30
2018-10-02T14:29:50.318Z,25.40
2018-10-02T14:32:20.647Z,25.30
2018-10-02T14:34:51.013Z,25.40
2018-10-02T14:37:21.767Z,25.50
2018-10-02T14:39:52.565Z,25.60
2018-10-02T14:42:22.971Z,25.50
2018-10-02T14:44:53.280Z,25.50
2018-10-02T14:47:23.632Z,25.50
2018-10-02T14:49:54.246Z,25.40
2018-10-02T14:52:24.597Z,25.40
2018-10-02T14:54:54.881Z,25.30
2018-10-02T14:57:25.670Z,25.00
2018-10-02T14:59:55.952Z,24.80
2018-10-02T15:02:26.361Z,24.50
2018-10-02T15:04:56.710Z,24.30
2018-10-02T15:07:27.152Z,24.10
2018-10-02T15:09:57.996Z,24.00
2018-10-02T15:12:28.425Z,23.80
2018-10-02T15:14:58.734Z,23.60
2018-10-02T15:17:29.049Z,23.50
2018-10-02T15:19:59.294Z,23.40
2018-10-02T15:22:29.678Z,23.30
2018-10-02T15:25:00.128Z,23.20
2018-10-02T15:27:30.643Z,23.10
2018-10-02T15:30:01.052Z,22.90
2018-10-02T15:32:31.817Z,22.80
2018-10-02T15:35:02.230Z,22.70
2018-10-02T15:37:32.831Z,22.50
2018-10-02T15:40:03.190Z,22.50
2018-10-02T15:42:33.686Z,22.30
2018-10-02T15:45:04.112Z,22.20
2018-10-02T15:47:34.797Z,22.10
2018-10-02T15:50:05.422Z,22.00
2018-10-02T15:52:36.011Z,22.00
2018-10-02T15:55:06.540Z,21.80
2018-10-02T15:57:37.013Z,21.80
2018-10-02T16:00:07.559Z,21.80
2018-10-02T16:02:37.964Z,21.80
2018-10-02T16:05:08.399Z,21.70
2018-10-02T16:07:38.749Z,21.60
2018-10-02T16:10:09.191Z,21.50
2018-10-02T16:12:39.661Z,21.50
2018-10-02T16:15:16.733Z,21.40
2018-10-02T16:17:49.108Z,21.40
2018-10-02T16:20:19.529Z,21.40
2018-10-02T16:22:49.785Z,21.40
2018-10-02T16:25:20.201Z,21.40
2018-10-02T16:27:55.882Z,21.40
2018-10-02T16:30:35.200Z,21.20
2018-10-02T16:33:08.636Z,21.10
2018-10-02T16:35:46.490Z,21.10
2018-10-02T16:38:19.630Z,21.10
2018-10-02T16:40:52.507Z,21.10
2018-10-02T16:43:27.808Z,21.00
2018-10-02T16:46:00.180Z,20.90
2018-10-02T16:48:30.988Z,20.90
2018-10-02T16:51:01.688Z,20.90
2018-10-02T16:53:31.956Z,20.80
2018-10-02T16:56:02.485Z,20.70
2018-10-02T16:58:32.757Z,20.60
2018-10-02T17:01:03.073Z,20.50
2018-10-02T17:03:33.473Z,20.50
2018-10-02T17:06:03.801Z,20.40
2018-10-02T17:08:34.320Z,20.30
2018-10-02T17:11:04.716Z,20.20
2018-10-02T17:13:35.479Z,20.10
2018-10-02T17:16:06.007Z,20.10
2018-10-02T17:18:36.485Z,20.00
2018-10-02T17:21:06.836Z,20.10
2018-10-02T17:23:37.411Z,20.00
2018-10-02T17:26:08.215Z,20.00
2018-10-02T17:28:38.668Z,19.90
2018-10-02T17:31:09.655Z,19.80
2018-10-02T17:33:40.237Z,19.80
2018-10-02T17:36:10.744Z,19.80
2018-10-02T17:38:41.284Z,19.70
2018-10-02T17:41:11.770Z,19.60
2018-10-02T17:43:42.468Z,19.60
2018-10-02T17:46:12.955Z,19.50
2018-10-02T17:48:43.470Z,19.50
2018-10-02T17:51:13.966Z,19.50
2018-10-02T17:53:44.595Z,19.40
2018-10-02T17:56:15.349Z,19.40
2018-10-02T17:58:46.196Z,19.30
2018-10-02T18:01:17.475Z,19.30
2018-10-02T18:03:48.037Z,19.20
2018-10-02T18:06:18.653Z,19.20
2018-10-02T18:08:49.424Z,19.10
2018-10-02T18:11:20.253Z,19.10
2018-10-02T18:13:50.777Z,19.10
2018-10-02T18:16:21.245Z,19.00
2018-10-02T18:18:52.409Z,19.00
2018-10-02T18:21:23.362Z,18.90
2018-10-02T18:23:54.236Z,18.90
2018-10-02T18:26:24.838Z,18.80
2018-10-02T18:28:55.690Z,18.70
2018-10-02T18:31:26.296Z,18.70
2018-10-02T18:33:56.758Z,18.70
2018-10-02T18:36:27.491Z,18.70
2018-10-02T18:38:58.269Z,18.80
2018-10-02T18:41:28.881Z,18.70
2018-10-02T18:44:00.600Z,18.70
2018-10-02T18:46:31.496Z,18.60
2018-10-02T18:49:02.433Z,18.50
2018-10-02T18:51:34.122Z,18.40
2018-10-02T18:54:04.665Z,18.40
2018-10-02T18:56:35.363Z,18.30
2018-10-02T18:59:05.939Z,18.20
2018-10-02T19:01:37.037Z,18.20
2018-10-02T19:04:07.558Z,18.20
2018-10-02T19:06:38.099Z,18.20
2018-10-02T19:09:16.167Z,18.20
2018-10-02T19:11:52.000Z,18.10
2018-10-02T19:14:22.652Z,18.10
2018-10-02T19:16:53.286Z,18.10
2018-10-02T19:19:28.821Z,18.10
2018-10-02T19:21:59.600Z,18.00
2018-10-02T19:24:30.760Z,18.00
2018-10-02T19:27:01.523Z,17.90
2018-10-02T19:29:32.591Z,17.90
2018-10-02T19:32:06.140Z,17.90
2018-10-02T19:34:37.405Z,17.90
2018-10-02T19:37:13.254Z,17.80
2018-10-02T19:39:43.897Z,17.80
2018-10-02T19:42:14.716Z,17.80
2018-10-02T19:44:45.322Z,17.80
2018-10-02T19:47:15.905Z,17.90
2018-10-02T19:49:46.465Z,17.90
2018-10-02T19:52:17.993Z,17.90
2018-10-02T19:54:49.182Z,17.90
2018-10-02T19:57:20.473Z,17.90
2018-10-02T19:59:51.565Z,17.90
2018-10-02T20:02:22.287Z,17.80
2018-10-02T20:04:52.855Z,17.80
2018-10-02T20:07:23.328Z,17.80
2018-10-02T20:09:53.933Z,17.80
2018-10-02T20:12:24.606Z,17.70
2018-10-02T20:14:55.072Z,17.70
2018-10-02T20:17:25.534Z,17.70
2018-10-02T20:19:56.285Z,17.70
2018-10-02T20:22:26.899Z,17.60
2018-10-02T20:24:57.590Z,17.60
2018-10-02T20:27:28.067Z,17.60
2018-10-02T20:29:59.168Z,17.60
2018-10-02T20:32:30.044Z,17.50
2018-10-02T20:35:02.063Z,17.50
2018-10-02T20:37:33.083Z,17.50
2018-10-02T20:40:04.833Z,17.50
2018-10-02T20:42:36.286Z,17.50
2018-10-02T20:45:08.720Z,17.50
2018-10-02T20:47:39.780Z,17.60
2018-10-02T20:50:10.249Z,17.60
2018-10-02T20:52:45.352Z,17.60
2018-10-02T20:55:18.063Z,17.60
2018-10-02T20:57:49.082Z,17.60
2018-10-02T21:00:19.491Z,17.60
2018-10-02T21:02:49.790Z,17.60
2018-10-02T21:05:20.749Z,17.50
2018-10-02T21:07:53.601Z,17.60
2018-10-02T21:10:27.069Z,17.60
2018-10-02T21:13:01.653Z,17.60
2018-10-02T21:15:38.053Z,17.50
2018-10-02T21:18:10.018Z,17.50
2018-10-02T21:20:44.734Z,17.40
2018-10-02T21:23:15.506Z,17.40
2018-10-02T21:25:49.056Z,17.30
2018-10-02T21:28:22.770Z,17.20
2018-10-02T21:30:57.281Z,17.10
2018-10-02T21:33:28.667Z,17.00
2018-10-02T21:35:59.150Z,17.00
2018-10-02T21:38:29.407Z,17.00
2018-10-02T21:40:59.855Z,17.00
2018-10-02T21:43:30.204Z,17.00
2018-10-02T21:46:00.501Z,16.90
2018-10-02T21:48:30.961Z,16.90
2018-10-02T21:51:01.323Z,17.00
2018-10-02T21:53:31.844Z,16.90
2018-10-02T21:56:02.150Z,16.90
2018-10-02T21:58:32.465Z,16.80
2018-10-02T22:01:05.325Z,16.80
2018-10-02T22:03:39.651Z,16.80
2018-10-02T22:06:10.172Z,16.70
2018-10-02T22:08:40.599Z,16.80
2018-10-02T22:11:10.990Z,16.80
2018-10-02T22:13:42.807Z,16.70
2018-10-02T22:16:13.676Z,16.80
2018-10-02T22:18:44.193Z,16.70
2018-10-02T22:21:14.736Z,16.70
2018-10-02T22:23:45.152Z,16.70
2018-10-02T22:26:15.551Z,16.70
2018-10-02T22:28:45.889Z,16.70
2018-10-02T22:31:16.372Z,16.70
2018-10-02T22:33:46.643Z,16.60
2018-10-02T22:36:17.329Z,16.60
2018-10-02T22:38:47.650Z,16.60
2018-10-02T22:41:17.955Z,16.60
2018-10-02T22:43:48.401Z,16.60
2018-10-02T22:46:19.216Z,16.60
2018-10-02T22:48:49.678Z,16.60
2018-10-02T22:51:20.159Z,16.60
2018-10-02T22:53:50.758Z,16.60
2018-10-02T22:56:21.344Z,16.60
2018-10-02T22:58:51.802Z,16.50
2018-10-02T23:01:22.237Z,16.50
2018-10-02T23:03:52.912Z,16.50
2018-10-02T23:06:23.208Z,16.50
2018-10-02T23:08:53.563Z,16.40
2018-10-02T23:11:23.937Z,16.40
2018-10-02T23:13:54.700Z,15.90
2018-10-02T23:16:25.221Z,16.40
2018-10-02T23:18:55.585Z,16.40
2018-10-02T23:21:26.053Z,16.30
2018-10-02T23:23:56.725Z,16.30
2018-10-02T23:26:27.016Z,16.20
2018-10-02T23:28:57.595Z,16.20
2018-10-02T23:31:28.306Z,16.10
2018-10-02T23:33:58.793Z,16.10
2018-10-02T23:36:29.275Z,16.10
2018-10-02T23:38:59.575Z,16.10
2018-10-02T23:41:29.839Z,16.00
2018-10-02T23:44:00.163Z,16.00
2018-10-02T23:46:30.460Z,16.10
2018-10-02T23:49:01.407Z,16.00
2018-10-02T23:51:31.801Z,16.10
2018-10-02T23:54:02.174Z,16.10
2018-10-02T23:56:32.566Z,16.10
2018-10-02T23:59:02.975Z,16.00
